sensor_id;sensor_type;location;lat;lon;timestamp;pressure;altitude;pressure_sealevel;temperature;humidity
6413;BME280;3239;48.714;9.472;2023-03-04T00:02:01;98781.03;;;0.46;100.00
6413;BME280;3239;48.714;9.472;2023-03-04T00:04:27;98774.53;;;0.35;100.00
6413;BME280;3239;48.714;9.472;2023-03-04T00:06:52;98773.16;;;0.30;100.00
6413;BME280;3239;48.714;9.472;2023-03-04T00:09:18;98777.50;;;0.28;100.00
6413;BME280;3239;48.714;9.472;2023-03-04T00:11:44;98783.00;;;0.24;100.00
6413;BME280;3239;48.714;9.472;2023-03-04T00:14:10;98790.75;;;0.22;100.00
6413;BME280;3239;48.714;9.472;2023-03-04T00:16:35;98786.88;;;0.23;100.00
6413;BME280;3239;48.714;9.472;2023-03-04T00:19:01;98788.50;;;0.21;100.00
6413;BME280;3239;48.714;9.472;2023-03-04T00:21:28;98789.56;;;0.23;100.00
6413;BME280;3239;48.714;9.472;2023-03-04T00:23:53;98787.34;;;0.22;100.00
6413;BME280;3239;48.714;9.472;2023-03-04T00:26:19;98789.41;;;0.18;100.00
6413;BME280;3239;48.714;9.472;2023-03-04T00:28:45;98785.34;;;0.13;100.00
6413;BME280;3239;48.714;9.472;2023-03-04T00:31:11;98786.28;;;0.19;100.00
6413;BME280;3239;48.714;9.472;2023-03-04T00:33:37;98784.69;;;0.09;100.00
6413;BME280;3239;48.714;9.472;2023-03-04T00:36:04;98780.38;;;0.12;100.00
6413;BME280;3239;48.714;9.472;2023-03-04T00:38:30;98786.59;;;0.00;100.00
6413;BME280;3239;48.714;9.472;2023-03-04T00:40:55;98790.28;;;-0.07;100.00
6413;BME280;3239;48.714;9.472;2023-03-04T00:43:21;98797.38;;;0.00;100.00
6413;BME280;3239;48.714;9.472;2023-03-04T00:45:47;98794.97;;;0.02;100.00
6413;BME280;3239;48.714;9.472;2023-03-04T00:48:14;98802.75;;;0.00;100.00
6413;BME280;3239;48.714;9.472;2023-03-04T00:50:41;98802.53;;;-0.06;100.00
6413;BME280;3239;48.714;9.472;2023-03-04T00:53:08;98784.00;;;-0.25;100.00
6413;BME280;3239;48.714;9.472;2023-03-04T00:55:34;98803.22;;;-0.14;100.00
6413;BME280;3239;48.714;9.472;2023-03-04T00:57:59;98796.44;;;-0.19;100.00
6413;BME280;3239;48.714;9.472;2023-03-04T01:00:25;98792.06;;;-0.25;100.00
6413;BME280;3239;48.714;9.472;2023-03-04T01:02:51;98801.94;;;-0.22;100.00
6413;BME280;3239;48.714;9.472;2023-03-04T01:05:17;98796.44;;;-0.19;100.00
6413;BME280;3239;48.714;9.472;2023-03-04T01:07:43;98792.59;;;-0.17;100.00
6413;BME280;3239;48.714;9.472;2023-03-04T01:10:11;98782.38;;;-0.22;100.00
6413;BME280;3239;48.714;9.472;2023-03-04T01:12:37;98798.19;;;-0.25;100.00
6413;BME280;3239;48.714;9.472;2023-03-04T01:15:06;98792.81;;;-0.25;100.00
6413;BME280;3239;48.714;9.472;2023-03-04T01:17:32;98791.31;;;-0.26;100.00
6413;BME280;3239;48.714;9.472;2023-03-04T01:19:57;98785.28;;;-0.30;100.00
6413;BME280;3239;48.714;9.472;2023-03-04T01:22:23;98781.97;;;-0.33;100.00
6413;BME280;3239;48.714;9.472;2023-03-04T01:24:49;98784.38;;;-0.48;100.00
6413;BME280;3239;48.714;9.472;2023-03-04T01:27:14;98789.53;;;-0.41;100.00
6413;BME280;3239;48.714;9.472;2023-03-04T01:29:40;98779.38;;;-0.37;100.00
6413;BME280;3239;48.714;9.472;2023-03-04T01:32:06;98773.38;;;-0.41;100.00
6413;BME280;3239;48.714;9.472;2023-03-04T01:34:32;98775.00;;;-0.43;100.00
6413;BME280;3239;48.714;9.472;2023-03-04T01:36:58;98773.00;;;-0.52;100.00
6413;BME280;3239;48.714;9.472;2023-03-04T01:39:24;98779.31;;;-0.46;100.00
6413;BME280;3239;48.714;9.472;2023-03-04T01:41:49;98777.19;;;-0.51;100.00
6413;BME280;3239;48.714;9.472;2023-03-04T01:44:15;98770.53;;;-0.59;100.00
6413;BME280;3239;48.714;9.472;2023-03-04T01:46:47;98782.69;;;-0.54;100.00
6413;BME280;3239;48.714;9.472;2023-03-04T01:49:14;98776.22;;;-0.57;100.00
6413;BME280;3239;48.714;9.472;2023-03-04T01:51:49;98777.50;;;-0.62;100.00
6413;BME280;3239;48.714;9.472;2023-03-04T01:54:17;98777.88;;;-0.72;100.00
6413;BME280;3239;48.714;9.472;2023-03-04T01:56:46;98778.31;;;-0.73;100.00
6413;BME280;3239;48.714;9.472;2023-03-04T01:59:18;98776.44;;;-0.64;100.00
6413;BME280;3239;48.714;9.472;2023-03-04T02:01:48;98785.06;;;-0.69;100.00
6413;BME280;3239;48.714;9.472;2023-03-04T02:04:16;98773.47;;;-0.78;100.00
6413;BME280;3239;48.714;9.472;2023-03-04T02:06:44;98773.81;;;-0.76;100.00
6413;BME280;3239;48.714;9.472;2023-03-04T02:09:11;98772.16;;;-0.74;100.00
6413;BME280;3239;48.714;9.472;2023-03-04T02:11:38;98773.22;;;-0.72;100.00
6413;BME280;3239;48.714;9.472;2023-03-04T02:14:05;98774.00;;;-0.71;100.00
6413;BME280;3239;48.714;9.472;2023-03-04T02:16:31;98773.69;;;-0.73;100.00
6413;BME280;3239;48.714;9.472;2023-03-04T02:18:58;98783.03;;;-0.77;100.00
6413;BME280;3239;48.714;9.472;2023-03-04T02:21:31;98781.25;;;-0.93;100.00
6413;BME280;3239;48.714;9.472;2023-03-04T02:26:53;98768.44;;;-0.89;100.00
6413;BME280;3239;48.714;9.472;2023-03-04T02:29:19;98773.81;;;-0.89;100.00
6413;BME280;3239;48.714;9.472;2023-03-04T02:31:48;98774.44;;;-0.85;100.00
6413;BME280;3239;48.714;9.472;2023-03-04T02:34:29;98780.06;;;-0.92;100.00
6413;BME280;3239;48.714;9.472;2023-03-04T02:36:56;98773.19;;;-0.93;100.00
6413;BME280;3239;48.714;9.472;2023-03-04T02:39:33;98779.94;;;-1.01;100.00
6413;BME280;3239;48.714;9.472;2023-03-04T02:42:01;98775.44;;;-1.04;100.00
6413;BME280;3239;48.714;9.472;2023-03-04T02:44:34;98786.22;;;-1.04;100.00
6413;BME280;3239;48.714;9.472;2023-03-04T02:47:01;98785.00;;;-1.03;100.00
6413;BME280;3239;48.714;9.472;2023-03-04T02:49:30;98779.53;;;-0.99;100.00
6413;BME280;3239;48.714;9.472;2023-03-04T02:52:14;98780.72;;;-1.00;100.00
6413;BME280;3239;48.714;9.472;2023-03-04T02:54:41;98779.75;;;-1.06;100.00
6413;BME280;3239;48.714;9.472;2023-03-04T02:57:10;98773.72;;;-1.10;100.00
6413;BME280;3239;48.714;9.472;2023-03-04T02:59:37;98778.91;;;-1.16;100.00
6413;BME280;3239;48.714;9.472;2023-03-04T03:02:04;98776.75;;;-1.21;100.00
6413;BME280;3239;48.714;9.472;2023-03-04T03:04:30;98779.75;;;-1.19;100.00
6413;BME280;3239;48.714;9.472;2023-03-04T03:06:56;98789.75;;;-1.19;100.00
6413;BME280;3239;48.714;9.472;2023-03-04T03:09:22;98789.41;;;-1.34;100.00
6413;BME280;3239;48.714;9.472;2023-03-04T03:11:47;98792.41;;;-1.32;100.00
6413;BME280;3239;48.714;9.472;2023-03-04T03:14:13;98784.16;;;-1.25;100.00
6413;BME280;3239;48.714;9.472;2023-03-04T03:16:39;98788.56;;;-1.31;100.00
6413;BME280;3239;48.714;9.472;2023-03-04T03:19:05;98787.28;;;-1.26;100.00
6413;BME280;3239;48.714;9.472;2023-03-04T03:21:31;98784.69;;;-1.30;100.00
6413;BME280;3239;48.714;9.472;2023-03-04T03:23:56;98790.50;;;-1.31;100.00
6413;BME280;3239;48.714;9.472;2023-03-04T03:26:22;98798.25;;;-1.33;100.00
6413;BME280;3239;48.714;9.472;2023-03-04T03:28:48;98790.28;;;-1.37;100.00
6413;BME280;3239;48.714;9.472;2023-03-04T03:31:14;98789.09;;;-1.36;100.00
6413;BME280;3239;48.714;9.472;2023-03-04T03:33:40;98788.69;;;-1.34;100.00
6413;BME280;3239;48.714;9.472;2023-03-04T03:36:06;98789.53;;;-1.37;100.00
6413;BME280;3239;48.714;9.472;2023-03-04T03:38:33;98782.31;;;-1.53;100.00
6413;BME280;3239;48.714;9.472;2023-03-04T03:40:59;98788.66;;;-1.47;100.00
6413;BME280;3239;48.714;9.472;2023-03-04T03:43:24;98785.63;;;-1.49;100.00
6413;BME280;3239;48.714;9.472;2023-03-04T03:45:50;98786.41;;;-1.48;100.00
6413;BME280;3239;48.714;9.472;2023-03-04T03:48:16;98781.56;;;-1.53;100.00
6413;BME280;3239;48.714;9.472;2023-03-04T03:50:42;98787.03;;;-1.57;100.00
6413;BME280;3239;48.714;9.472;2023-03-04T03:53:08;98782.31;;;-1.53;100.00
6413;BME280;3239;48.714;9.472;2023-03-04T03:55:34;98787.03;;;-1.57;100.00
6413;BME280;3239;48.714;9.472;2023-03-04T03:57:59;98778.63;;;-1.59;100.00
6413;BME280;3239;48.714;9.472;2023-03-04T04:00:25;98789.72;;;-1.57;100.00
6413;BME280;3239;48.714;9.472;2023-03-04T04:02:53;98779.16;;;-1.64;100.00
6413;BME280;3239;48.714;9.472;2023-03-04T04:05:20;98789.69;;;-1.69;100.00
6413;BME280;3239;48.714;9.472;2023-03-04T04:07:45;98792.06;;;-1.71;100.00
6413;BME280;3239;48.714;9.472;2023-03-04T04:10:11;98782.47;;;-1.72;100.00
6413;BME280;3239;48.714;9.472;2023-03-04T04:12:37;98789.03;;;-1.73;100.00
6413;BME280;3239;48.714;9.472;2023-03-04T04:15:03;98787.53;;;-1.74;100.00
6413;BME280;3239;48.714;9.472;2023-03-04T04:17:29;98789.91;;;-1.76;100.00
6413;BME280;3239;48.714;9.472;2023-03-04T04:19:55;98787.66;;;-1.78;100.00
6413;BME280;3239;48.714;9.472;2023-03-04T04:22:20;98790.94;;;-1.86;100.00
6413;BME280;3239;48.714;9.472;2023-03-04T04:24:47;98798.03;;;-1.92;100.00
6413;BME280;3239;48.714;9.472;2023-03-04T04:27:13;98794.91;;;-1.91;100.00
6413;BME280;3239;48.714;9.472;2023-03-04T04:29:39;98789.53;;;-1.91;100.00
6413;BME280;3239;48.714;9.472;2023-03-04T04:32:06;98790.41;;;-1.94;100.00
6413;BME280;3239;48.714;9.472;2023-03-04T04:34:33;98799.31;;;-1.84;100.00
6413;BME280;3239;48.714;9.472;2023-03-04T04:36:59;98797.28;;;-1.93;100.00
6413;BME280;3239;48.714;9.472;2023-03-04T04:39:24;98797.75;;;-2.10;100.00
6413;BME280;3239;48.714;9.472;2023-03-04T04:41:50;98798.50;;;-2.10;100.00
6413;BME280;3239;48.714;9.472;2023-03-04T04:44:16;98803.34;;;-2.05;100.00
6413;BME280;3239;48.714;9.472;2023-03-04T04:46:41;98802.28;;;-2.07;100.00
6413;BME280;3239;48.714;9.472;2023-03-04T04:49:07;98810.69;;;-2.21;100.00
6413;BME280;3239;48.714;9.472;2023-03-04T04:51:36;98807.91;;;-2.18;100.00
6413;BME280;3239;48.714;9.472;2023-03-04T04:54:03;98815.78;;;-2.11;100.00
6413;BME280;3239;48.714;9.472;2023-03-04T04:56:30;98805.06;;;-2.11;100.00
6413;BME280;3239;48.714;9.472;2023-03-04T04:58:58;98809.41;;;-2.17;100.00
6413;BME280;3239;48.714;9.472;2023-03-04T05:01:25;98807.16;;;-2.18;100.00
6413;BME280;3239;48.714;9.472;2023-03-04T05:03:52;98811.34;;;-2.17;100.00
6413;BME280;3239;48.714;9.472;2023-03-04T05:06:18;98811.44;;;-2.21;100.00
6413;BME280;3239;48.714;9.472;2023-03-04T05:08:45;98816.47;;;-2.23;100.00
6413;BME280;3239;48.714;9.472;2023-03-04T05:11:11;98817.66;;;-2.24;100.00
6413;BME280;3239;48.714;9.472;2023-03-04T05:13:37;98814.66;;;-2.26;100.00
6413;BME280;3239;48.714;9.472;2023-03-04T05:16:04;98814.28;;;-2.28;100.00
6413;BME280;3239;48.714;9.472;2023-03-04T05:18:30;98815.28;;;-2.22;100.00
6413;BME280;3239;48.714;9.472;2023-03-04T05:20:59;98813.66;;;-2.32;100.00
6413;BME280;3239;48.714;9.472;2023-03-04T05:23:29;98813.13;;;-2.27;100.00
6413;BME280;3239;48.714;9.472;2023-03-04T05:25:55;98819.75;;;-2.31;100.00
6413;BME280;3239;48.714;9.472;2023-03-04T05:28:21;98816.34;;;-2.32;100.00
6413;BME280;3239;48.714;9.472;2023-03-04T05:30:47;98818.34;;;-2.36;100.00
6413;BME280;3239;48.714;9.472;2023-03-04T05:33:15;98818.34;;;-2.36;100.00
6413;BME280;3239;48.714;9.472;2023-03-04T05:35:42;98821.78;;;-2.35;100.00
6413;BME280;3239;48.714;9.472;2023-03-04T05:38:11;98821.03;;;-2.36;100.00
6413;BME280;3239;48.714;9.472;2023-03-04T05:40:40;98826.91;;;-2.41;100.00
6413;BME280;3239;48.714;9.472;2023-03-04T05:43:06;98824.41;;;-2.48;100.00
6413;BME280;3239;48.714;9.472;2023-03-04T05:45:32;98833.09;;;-2.44;100.00
6413;BME280;3239;48.714;9.472;2023-03-04T05:47:58;98822.78;;;-2.45;100.00
6413;BME280;3239;48.714;9.472;2023-03-04T05:50:24;98821.78;;;-2.51;100.00
6413;BME280;3239;48.714;9.472;2023-03-04T05:52:50;98813.44;;;-2.69;100.00
6413;BME280;3239;48.714;9.472;2023-03-04T05:55:16;98828.16;;;-2.61;100.00
6413;BME280;3239;48.714;9.472;2023-03-04T05:57:43;98826.66;;;-2.62;100.00
6413;BME280;3239;48.714;9.472;2023-03-04T06:00:10;98826.44;;;-2.68;100.00
6413;BME280;3239;48.714;9.472;2023-03-04T06:02:38;98831.28;;;-2.63;100.00
6413;BME280;3239;48.714;9.472;2023-03-04T06:05:06;98837.47;;;-2.66;100.00
6413;BME280;3239;48.714;9.472;2023-03-04T06:07:32;98836.31;;;-2.65;100.00
6413;BME280;3239;48.714;9.472;2023-03-04T06:09:58;98840.16;;;-2.66;100.00
6413;BME280;3239;48.714;9.472;2023-03-04T06:12:24;98844.69;;;-2.63;100.00
6413;BME280;3239;48.714;9.472;2023-03-04T06:14:50;98849.47;;;-2.70;100.00
6413;BME280;3239;48.714;9.472;2023-03-04T06:17:16;98851.66;;;-2.65;100.00
6413;BME280;3239;48.714;9.472;2023-03-04T06:19:41;98852.84;;;-2.66;100.00
6413;BME280;3239;48.714;9.472;2023-03-04T06:22:08;98853.97;;;-2.51;100.00
6413;BME280;3239;48.714;9.472;2023-03-04T06:24:34;98847.47;;;-2.66;100.00
6413;BME280;3239;48.714;9.472;2023-03-04T06:27:00;98851.47;;;-2.58;100.00
6413;BME280;3239;48.714;9.472;2023-03-04T06:29:27;98851.16;;;-2.60;100.00
6413;BME280;3239;48.714;9.472;2023-03-04T06:31:53;98862.19;;;-2.42;100.00
6413;BME280;3239;48.714;9.472;2023-03-04T06:34:19;98861.59;;;-2.34;100.00
6413;BME280;3239;48.714;9.472;2023-03-04T06:36:45;98865.66;;;-2.42;100.00
6413;BME280;3239;48.714;9.472;2023-03-04T06:39:10;98871.44;;;-2.43;100.00
6413;BME280;3239;48.714;9.472;2023-03-04T06:41:37;98873.59;;;-2.38;100.00
6413;BME280;3239;48.714;9.472;2023-03-04T06:44:04;98884.06;;;-2.12;100.00
6413;BME280;3239;48.714;9.472;2023-03-04T06:46:31;98874.41;;;-2.09;100.00
6413;BME280;3239;48.714;9.472;2023-03-04T06:48:57;98884.22;;;-2.03;100.00
6413;BME280;3239;48.714;9.472;2023-03-04T06:51:23;98883.50;;;-1.91;100.00
6413;BME280;3239;48.714;9.472;2023-03-04T06:53:48;98885.00;;;-1.61;100.00
6413;BME280;3239;48.714;9.472;2023-03-04T06:56:14;98884.81;;;-1.26;100.00
6413;BME280;3239;48.714;9.472;2023-03-04T06:58:42;98888.03;;;-1.06;100.00
6413;BME280;3239;48.714;9.472;2023-03-04T07:01:21;98880.13;;;-1.38;100.00
6413;BME280;3239;48.714;9.472;2023-03-04T07:03:49;98877.19;;;-1.56;100.00
6413;BME280;3239;48.714;9.472;2023-03-04T07:06:19;98879.22;;;-1.60;100.00
6413;BME280;3239;48.714;9.472;2023-03-04T07:08:45;98869.28;;;-1.75;100.00
6413;BME280;3239;48.714;9.472;2023-03-04T07:11:11;98873.44;;;-1.87;100.00
6413;BME280;3239;48.714;9.472;2023-03-04T07:13:37;98876.56;;;-2.04;100.00
6413;BME280;3239;48.714;9.472;2023-03-04T07:16:05;98880.69;;;-2.00;100.00
6413;BME280;3239;48.714;9.472;2023-03-04T07:18:31;98881.97;;;-2.20;100.00
6413;BME280;3239;48.714;9.472;2023-03-04T07:20:57;98889.75;;;-1.65;100.00
6413;BME280;3239;48.714;9.472;2023-03-04T07:23:23;98891.84;;;-1.44;100.00
6413;BME280;3239;48.714;9.472;2023-03-04T07:25:49;98897.09;;;-1.82;100.00
6413;BME280;3239;48.714;9.472;2023-03-04T07:28:16;98897.97;;;-1.72;100.00
6413;BME280;3239;48.714;9.472;2023-03-04T07:30:42;98906.75;;;-1.84;100.00
6413;BME280;3239;48.714;9.472;2023-03-04T07:33:08;98913.47;;;-1.76;100.00
6413;BME280;3239;48.714;9.472;2023-03-04T07:35:33;98928.69;;;-1.16;100.00
6413;BME280;3239;48.714;9.472;2023-03-04T07:37:59;98918.81;;;-1.48;100.00
6413;BME280;3239;48.714;9.472;2023-03-04T07:40:25;98922.06;;;-1.40;100.00
6413;BME280;3239;48.714;9.472;2023-03-04T07:42:53;98918.06;;;-1.48;100.00
6413;BME280;3239;48.714;9.472;2023-03-04T07:45:20;98933.47;;;-0.95;100.00
6413;BME280;3239;48.714;9.472;2023-03-04T07:47:46;98929.72;;;-0.73;100.00
6413;BME280;3239;48.714;9.472;2023-03-04T07:50:12;98919.06;;;-0.89;100.00
6413;BME280;3239;48.714;9.472;2023-03-04T07:52:41;98924.97;;;-0.69;100.00
6413;BME280;3239;48.714;9.472;2023-03-04T07:55:09;98931.16;;;-1.09;100.00
6413;BME280;3239;48.714;9.472;2023-03-04T07:57:38;98920.69;;;-0.79;100.00
6413;BME280;3239;48.714;9.472;2023-03-04T08:00:04;98925.97;;;-0.75;100.00
6413;BME280;3239;48.714;9.472;2023-03-04T08:02:30;98926.47;;;-0.43;100.00
6413;BME280;3239;48.714;9.472;2023-03-04T08:04:56;98930.91;;;-0.49;100.00
6413;BME280;3239;48.714;9.472;2023-03-04T08:07:22;98924.13;;;-0.66;100.00
6413;BME280;3239;48.714;9.472;2023-03-04T08:09:48;98926.81;;;-0.66;100.00
6413;BME280;3239;48.714;9.472;2023-03-04T08:12:14;98934.47;;;-0.52;100.00
6413;BME280;3239;48.714;9.472;2023-03-04T08:14:40;98937.56;;;-0.41;100.00
6413;BME280;3239;48.714;9.472;2023-03-04T08:17:06;98943.81;;;-0.32;100.00
6413;BME280;3239;48.714;9.472;2023-03-04T08:19:33;98951.53;;;-0.09;100.00
6413;BME280;3239;48.714;9.472;2023-03-04T08:21:58;98948.47;;;0.14;100.00
6413;BME280;3239;48.714;9.472;2023-03-04T08:24:24;98954.50;;;0.18;100.00
6413;BME280;3239;48.714;9.472;2023-03-04T08:26:50;98953.94;;;0.23;100.00
6413;BME280;3239;48.714;9.472;2023-03-04T08:29:20;98957.31;;;0.02;100.00
6413;BME280;3239;48.714;9.472;2023-03-04T08:31:50;98960.47;;;0.01;100.00
6413;BME280;3239;48.714;9.472;2023-03-04T08:34:17;98957.84;;;0.10;100.00
6413;BME280;3239;48.714;9.472;2023-03-04T08:36:43;98961.47;;;0.28;100.00
6413;BME280;3239;48.714;9.472;2023-03-04T08:39:13;98976.41;;;0.42;100.00
6413;BME280;3239;48.714;9.472;2023-03-04T08:41:39;98963.44;;;0.15;100.00
6413;BME280;3239;48.714;9.472;2023-03-04T08:44:05;98965.94;;;0.10;100.00
6413;BME280;3239;48.714;9.472;2023-03-04T08:46:32;98974.31;;;0.24;100.00
6413;BME280;3239;48.714;9.472;2023-03-04T08:48:58;98972.50;;;0.21;100.00
6413;BME280;3239;48.714;9.472;2023-03-04T08:51:24;98973.53;;;0.36;100.00
6413;BME280;3239;48.714;9.472;2023-03-04T08:53:50;98973.50;;;0.49;100.00
6413;BME280;3239;48.714;9.472;2023-03-04T08:56:16;98991.56;;;0.61;100.00
6413;BME280;3239;48.714;9.472;2023-03-04T08:58:42;98987.44;;;0.69;100.00
6413;BME280;3239;48.714;9.472;2023-03-04T09:01:13;98988.06;;;0.73;100.00
6413;BME280;3239;48.714;9.472;2023-03-04T09:03:39;98990.97;;;0.44;100.00
6413;BME280;3239;48.714;9.472;2023-03-04T09:06:07;98991.00;;;0.66;100.00
6413;BME280;3239;48.714;9.472;2023-03-04T09:08:34;98985.09;;;0.58;100.00
6413;BME280;3239;48.714;9.472;2023-03-04T09:11:00;98985.22;;;0.55;100.00
6413;BME280;3239;48.714;9.472;2023-03-04T09:13:29;98989.38;;;0.68;100.00
6413;BME280;3239;48.714;9.472;2023-03-04T09:15:55;98974.75;;;0.57;100.00
6413;BME280;3239;48.714;9.472;2023-03-04T09:18:23;98992.19;;;0.65;100.00
6413;BME280;3239;48.714;9.472;2023-03-04T09:20:50;98988.81;;;0.73;100.00
6413;BME280;3239;48.714;9.472;2023-03-04T09:23:16;98995.59;;;0.78;100.00
6413;BME280;3239;48.714;9.472;2023-03-04T09:25:44;98999.47;;;0.77;100.00
6413;BME280;3239;48.714;9.472;2023-03-04T09:28:12;98999.28;;;0.71;100.00
6413;BME280;3239;48.714;9.472;2023-03-04T09:30:38;98993.00;;;0.53;100.00
6413;BME280;3239;48.714;9.472;2023-03-04T09:33:04;98992.38;;;0.49;100.00
6413;BME280;3239;48.714;9.472;2023-03-04T09:35:30;98984.19;;;0.40;100.00
6413;BME280;3239;48.714;9.472;2023-03-04T09:37:57;98996.97;;;0.27;100.00
6413;BME280;3239;48.714;9.472;2023-03-04T09:40:33;99000.75;;;0.51;100.00
6413;BME280;3239;48.714;9.472;2023-03-04T09:43:03;98996.88;;;0.52;100.00
6413;BME280;3239;48.714;9.472;2023-03-04T09:45:55;99002.16;;;0.77;100.00
6413;BME280;3239;48.714;9.472;2023-03-04T09:48:24;98997.47;;;0.68;100.00
6413;BME280;3239;48.714;9.472;2023-03-04T09:56:46;98996.59;;;0.71;100.00
6413;BME280;3239;48.714;9.472;2023-03-04T09:59:24;98999.97;;;0.84;100.00
6413;BME280;3239;48.714;9.472;2023-03-04T10:02:00;98999.25;;;1.05;100.00
6413;BME280;3239;48.714;9.472;2023-03-04T10:04:40;98996.28;;;1.12;100.00
6413;BME280;3239;48.714;9.472;2023-03-04T10:07:20;98996.59;;;1.14;100.00
6413;BME280;3239;48.714;9.472;2023-03-04T10:10:09;98990.00;;;1.15;100.00
6413;BME280;3239;48.714;9.472;2023-03-04T10:12:39;98984.81;;;0.99;100.00
6413;BME280;3239;48.714;9.472;2023-03-04T10:15:38;98983.69;;;1.09;100.00
6413;BME280;3239;48.714;9.472;2023-03-04T10:18:23;98978.00;;;1.16;100.00
6413;BME280;3239;48.714;9.472;2023-03-04T10:21:20;98972.13;;;1.39;100.00
6413;BME280;3239;48.714;9.472;2023-03-04T10:23:48;98965.31;;;1.56;100.00
6413;BME280;3239;48.714;9.472;2023-03-04T10:26:17;98961.72;;;1.50;100.00
6413;BME280;3239;48.714;9.472;2023-03-04T10:28:46;98955.94;;;1.70;100.00
6413;BME280;3239;48.714;9.472;2023-03-04T10:31:26;98950.94;;;1.29;100.00
6413;BME280;3239;48.714;9.472;2023-03-04T10:33:55;98951.59;;;1.42;100.00
6413;BME280;3239;48.714;9.472;2023-03-04T10:39:12;98945.72;;;1.74;100.00
6413;BME280;3239;48.714;9.472;2023-03-04T10:41:52;98945.59;;;1.86;100.00
6413;BME280;3239;48.714;9.472;2023-03-04T10:44:18;98931.97;;;1.99;100.00
6413;BME280;3239;48.714;9.472;2023-03-04T10:46:47;98934.38;;;1.97;100.00
6413;BME280;3239;48.714;9.472;2023-03-04T10:49:18;98914.44;;;2.03;100.00
6413;BME280;3239;48.714;9.472;2023-03-04T10:52:59;98915.75;;;1.81;100.00
6413;BME280;3239;48.714;9.472;2023-03-04T10:55:21;98904.22;;;2.07;100.00
6413;BME280;3239;48.714;9.472;2023-03-04T10:57:51;98899.81;;;1.83;100.00
6413;BME280;3239;48.714;9.472;2023-03-04T11:00:35;98897.72;;;1.78;100.00
6413;BME280;3239;48.714;9.472;2023-03-04T11:06:11;98880.16;;;1.73;100.00
6413;BME280;3239;48.714;9.472;2023-03-04T11:08:40;98883.84;;;1.58;100.00
6413;BME280;3239;48.714;9.472;2023-03-04T11:11:36;98878.81;;;1.78;100.00
6413;BME280;3239;48.714;9.472;2023-03-04T11:14:23;98872.06;;;1.91;100.00
6413;BME280;3239;48.714;9.472;2023-03-04T11:16:58;98863.06;;;2.12;100.00
6413;BME280;3239;48.714;9.472;2023-03-04T11:19:34;98866.22;;;2.29;100.00
6413;BME280;3239;48.714;9.472;2023-03-04T11:22:02;98851.34;;;2.42;100.00
6413;BME280;3239;48.714;9.472;2023-03-04T11:24:31;98844.13;;;2.57;100.00
6413;BME280;3239;48.714;9.472;2023-03-04T11:27:17;98826.44;;;2.11;100.00
6413;BME280;3239;48.714;9.472;2023-03-04T11:30:24;98827.78;;;2.16;100.00
6413;BME280;3239;48.714;9.472;2023-03-04T11:32:53;98826.00;;;2.22;100.00
6413;BME280;3239;48.714;9.472;2023-03-04T11:35:33;98812.03;;;2.14;100.00
6413;BME280;3239;48.714;9.472;2023-03-04T11:38:18;98811.44;;;2.10;100.00
6413;BME280;3239;48.714;9.472;2023-03-04T11:40:56;98814.88;;;2.11;100.00
6413;BME280;3239;48.714;9.472;2023-03-04T11:43:34;98812.13;;;2.47;100.00
6413;BME280;3239;48.714;9.472;2023-03-04T11:55:01;98799.09;;;2.36;100.00
6413;BME280;3239;48.714;9.472;2023-03-04T12:17:45;98759.00;;;3.09;100.00
6413;BME280;3239;48.714;9.472;2023-03-04T12:31:52;98723.84;;;3.00;100.00
6413;BME280;3239;48.714;9.472;2023-03-04T12:35:13;98722.34;;;2.99;100.00
6413;BME280;3239;48.714;9.472;2023-03-04T12:43:56;98712.13;;;3.26;100.00
6413;BME280;3239;48.714;9.472;2023-03-04T12:46:34;98695.44;;;3.28;100.00
6413;BME280;3239;48.714;9.472;2023-03-04T12:49:54;98694.44;;;3.40;100.00
6413;BME280;3239;48.714;9.472;2023-03-04T12:52:30;98697.81;;;3.49;100.00
6413;BME280;3239;48.714;9.472;2023-03-04T12:55:10;98692.34;;;3.35;100.00
6413;BME280;3239;48.714;9.472;2023-03-04T12:57:37;98684.66;;;3.19;100.00
6413;BME280;3239;48.714;9.472;2023-03-04T13:05:36;98678.94;;;3.40;100.00
6413;BME280;3239;48.714;9.472;2023-03-04T13:16:40;98670.00;;;3.49;100.00
6413;BME280;3239;48.714;9.472;2023-03-04T13:20:04;98665.03;;;3.62;100.00
6413;BME280;3239;48.714;9.472;2023-03-04T13:22:44;98668.41;;;3.71;100.00
6413;BME280;3239;48.714;9.472;2023-03-04T13:28:25;98663.94;;;3.68;100.00
6413;BME280;3239;48.714;9.472;2023-03-04T13:43:45;98671.31;;;3.68;100.00
6413;BME280;3239;48.714;9.472;2023-03-04T13:49:04;98668.19;;;3.46;100.00
6413;BME280;3239;48.714;9.472;2023-03-04T13:51:43;98666.97;;;3.47;100.00
6413;BME280;3239;48.714;9.472;2023-03-04T13:56:47;98666.91;;;3.56;100.00
6413;BME280;3239;48.714;9.472;2023-03-04T13:59:47;98675.06;;;3.32;100.00
6413;BME280;3239;48.714;9.472;2023-03-04T14:02:17;98670.69;;;3.35;100.00
6413;BME280;3239;48.714;9.472;2023-03-04T14:04:55;98671.91;;;3.34;100.00
6413;BME280;3239;48.714;9.472;2023-03-04T14:07:30;98674.16;;;3.35;100.00
6413;BME280;3239;48.714;9.472;2023-03-04T14:10:17;98672.81;;;3.31;100.00
6413;BME280;3239;48.714;9.472;2023-03-04T14:12:55;98670.56;;;3.29;100.00
6413;BME280;3239;48.714;9.472;2023-03-04T14:15:26;98674.31;;;3.32;100.00
6413;BME280;3239;48.714;9.472;2023-03-04T14:17:58;98671.94;;;3.10;100.00
6413;BME280;3239;48.714;9.472;2023-03-04T14:20:39;98671.69;;;3.23;100.00
6413;BME280;3239;48.714;9.472;2023-03-04T14:23:32;98668.16;;;3.31;100.00
6413;BME280;3239;48.714;9.472;2023-03-04T14:26:13;98667.78;;;3.24;100.00
6413;BME280;3239;48.714;9.472;2023-03-04T14:31:19;98665.53;;;2.99;100.00
6413;BME280;3239;48.714;9.472;2023-03-04T14:33:53;98662.63;;;3.02;100.00
6413;BME280;3239;48.714;9.472;2023-03-04T14:36:24;98664.72;;;2.84;100.00
6413;BME280;3239;48.714;9.472;2023-03-04T14:39:04;98649.63;;;2.92;100.00
6413;BME280;3239;48.714;9.472;2023-03-04T14:41:34;98655.00;;;3.01;100.00
6413;BME280;3239;48.714;9.472;2023-03-04T14:46:57;98652.31;;;3.01;100.00
6413;BME280;3239;48.714;9.472;2023-03-04T14:49:26;98646.00;;;2.95;100.00
6413;BME280;3239;48.714;9.472;2023-03-04T14:51:54;98645.84;;;2.98;100.00
6413;BME280;3239;48.714;9.472;2023-03-04T14:54:34;98652.00;;;2.99;100.00
6413;BME280;3239;48.714;9.472;2023-03-04T14:57:33;98642.31;;;2.83;100.00
6413;BME280;3239;48.714;9.472;2023-03-04T15:00:28;98636.09;;;2.68;100.00
6413;BME280;3239;48.714;9.472;2023-03-04T15:03:03;98637.25;;;2.76;100.00
6413;BME280;3239;48.714;9.472;2023-03-04T15:05:35;98633.66;;;2.70;100.00
6413;BME280;3239;48.714;9.472;2023-03-04T15:08:23;98630.56;;;2.63;100.00
6413;BME280;3239;48.714;9.472;2023-03-04T15:11:03;98640.94;;;2.64;100.00
6413;BME280;3239;48.714;9.472;2023-03-04T15:13:44;98636.84;;;2.69;100.00